sensor_id;sensor_type;location;lat;lon;timestamp;pressure;altitude;pressure_sealevel;temperature;humidity
16255;BME280;8235;52.198;9.904;2024-02-23T00:01:59;97685.78;;;8.98;62.36
16255;BME280;8235;52.198;9.904;2024-02-23T00:04:25;97687.09;;;8.94;60.85
16255;BME280;8235;52.198;9.904;2024-02-23T00:06:52;97700.69;;;8.91;60.88
16255;BME280;8235;52.198;9.904;2024-02-23T00:09:18;97693.03;;;8.88;60.84
16255;BME280;8235;52.198;9.904;2024-02-23T00:11:45;97703.13;;;8.85;60.89
16255;BME280;8235;52.198;9.904;2024-02-23T00:14:12;97699.13;;;8.81;61.89
16255;BME280;8235;52.198;9.904;2024-02-23T00:16:40;97698.63;;;8.77;61.85
16255;BME280;8235;52.198;9.904;2024-02-23T00:19:07;97714.03;;;8.74;62.00
16255;BME280;8235;52.198;9.904;2024-02-23T00:21:34;97712.34;;;8.73;62.42
16255;BME280;8235;52.198;9.904;2024-02-23T00:24:01;97712.81;;;8.68;62.22
16255;BME280;8235;52.198;9.904;2024-02-23T00:26:27;97708.66;;;8.65;62.11
16255;BME280;8235;52.198;9.904;2024-02-23T00:28:54;97719.28;;;8.65;61.35
16255;BME280;8235;52.198;9.904;2024-02-23T00:31:21;97698.88;;;8.66;60.50
16255;BME280;8235;52.198;9.904;2024-02-23T00:33:49;97724.72;;;8.64;60.83
16255;BME280;8235;52.198;9.904;2024-02-23T00:36:15;97718.59;;;8.63;59.65
16255;BME280;8235;52.198;9.904;2024-02-23T00:38:42;97718.13;;;8.68;59.22
16255;BME280;8235;52.198;9.904;2024-02-23T00:41:08;97733.53;;;8.64;59.68
16255;BME280;8235;52.198;9.904;2024-02-23T00:43:38;97730.72;;;8.66;59.60
16255;BME280;8235;52.198;9.904;2024-02-23T00:46:04;97740.19;;;8.68;60.16
16255;BME280;8235;52.198;9.904;2024-02-23T00:48:31;97728.75;;;8.68;59.88
16255;BME280;8235;52.198;9.904;2024-02-23T00:50:59;97742.16;;;8.66;60.56
16255;BME280;8235;52.198;9.904;2024-02-23T00:53:25;97767.56;;;8.69;60.91
16255;BME280;8235;52.198;9.904;2024-02-23T00:55:52;97759.75;;;8.67;61.44
16255;BME280;8235;52.198;9.904;2024-02-23T00:58:18;97775.50;;;8.69;60.60
16255;BME280;8235;52.198;9.904;2024-02-23T01:00:44;97768.22;;;8.71;61.26
16255;BME280;8235;52.198;9.904;2024-02-23T01:03:13;97763.22;;;8.68;60.31
16255;BME280;8235;52.198;9.904;2024-02-23T01:05:39;97784.31;;;8.69;60.99
16255;BME280;8235;52.198;9.904;2024-02-23T01:08:09;97784.59;;;8.66;59.74
16255;BME280;8235;52.198;9.904;2024-02-23T01:10:35;97790.06;;;8.65;59.93
16255;BME280;8235;52.198;9.904;2024-02-23T01:13:02;97836.16;;;8.64;59.94
16255;BME280;8235;52.198;9.904;2024-02-23T01:15:30;97803.97;;;8.59;59.03
16255;BME280;8235;52.198;9.904;2024-02-23T01:17:56;97813.91;;;8.57;59.21
16255;BME280;8235;52.198;9.904;2024-02-23T01:20:23;97834.72;;;8.52;59.39
16255;BME280;8235;52.198;9.904;2024-02-23T01:22:49;97839.22;;;8.51;60.70
16255;BME280;8235;52.198;9.904;2024-02-23T01:25:17;97845.78;;;8.47;60.26
16255;BME280;8235;52.198;9.904;2024-02-23T01:27:44;97858.38;;;8.45;59.87
16255;BME280;8235;52.198;9.904;2024-02-23T01:30:11;97884.06;;;8.45;61.49
16255;BME280;8235;52.198;9.904;2024-02-23T01:32:38;97902.63;;;8.45;60.13
16255;BME280;8235;52.198;9.904;2024-02-23T01:35:05;97903.41;;;8.37;60.34
16255;BME280;8235;52.198;9.904;2024-02-23T01:37:33;97895.44;;;8.37;61.55
16255;BME280;8235;52.198;9.904;2024-02-23T01:40:00;97914.44;;;8.32;62.42
16255;BME280;8235;52.198;9.904;2024-02-23T01:42:27;97919.47;;;8.26;61.50
16255;BME280;8235;52.198;9.904;2024-02-23T01:44:54;97915.91;;;8.17;62.58
16255;BME280;8235;52.198;9.904;2024-02-23T01:47:22;97942.72;;;8.14;65.28
16255;BME280;8235;52.198;9.904;2024-02-23T01:49:48;97962.53;;;8.10;66.20
16255;BME280;8235;52.198;9.904;2024-02-23T01:52:16;97970.41;;;8.02;67.12
16255;BME280;8235;52.198;9.904;2024-02-23T01:54:43;97982.56;;;7.95;67.66
16255;BME280;8235;52.198;9.904;2024-02-23T01:57:11;98001.16;;;7.85;68.18
16255;BME280;8235;52.198;9.904;2024-02-23T01:59:39;97999.06;;;7.79;68.71
16255;BME280;8235;52.198;9.904;2024-02-23T02:02:06;98016.50;;;7.72;69.29
16255;BME280;8235;52.198;9.904;2024-02-23T02:04:32;98048.16;;;7.74;71.76
16255;BME280;8235;52.198;9.904;2024-02-23T02:07:00;98060.19;;;7.68;74.91
16255;BME280;8235;52.198;9.904;2024-02-23T02:09:27;98054.47;;;7.63;75.92
16255;BME280;8235;52.198;9.904;2024-02-23T02:11:53;98064.63;;;7.58;76.80
16255;BME280;8235;52.198;9.904;2024-02-23T02:14:20;98066.34;;;7.49;77.41
16255;BME280;8235;52.198;9.904;2024-02-23T02:16:48;98071.75;;;7.38;76.89
16255;BME280;8235;52.198;9.904;2024-02-23T02:19:14;98075.69;;;7.34;78.33
16255;BME280;8235;52.198;9.904;2024-02-23T02:21:41;98079.00;;;7.26;79.05
16255;BME280;8235;52.198;9.904;2024-02-23T02:24:08;98087.94;;;7.16;79.20
16255;BME280;8235;52.198;9.904;2024-02-23T02:26:35;98097.38;;;7.09;80.63
16255;BME280;8235;52.198;9.904;2024-02-23T02:29:02;98094.56;;;7.01;80.42
16255;BME280;8235;52.198;9.904;2024-02-23T02:31:29;98104.75;;;6.95;80.85
16255;BME280;8235;52.198;9.904;2024-02-23T02:34:03;98108.47;;;6.83;81.65
16255;BME280;8235;52.198;9.904;2024-02-23T02:36:30;98120.44;;;6.78;81.46
16255;BME280;8235;52.198;9.904;2024-02-23T02:38:56;98129.75;;;6.72;81.06
16255;BME280;8235;52.198;9.904;2024-02-23T02:41:24;98144.78;;;6.72;81.84
16255;BME280;8235;52.198;9.904;2024-02-23T02:43:53;98144.34;;;6.67;81.75
16255;BME280;8235;52.198;9.904;2024-02-23T02:46:20;98155.03;;;6.65;82.04
16255;BME280;8235;52.198;9.904;2024-02-23T02:48:47;98147.94;;;6.56;82.74
16255;BME280;8235;52.198;9.904;2024-02-23T02:51:14;98170.19;;;6.53;82.93
16255;BME280;8235;52.198;9.904;2024-02-23T02:53:41;98174.63;;;6.53;82.71
16255;BME280;8235;52.198;9.904;2024-02-23T02:56:07;98179.75;;;6.45;82.95
16255;BME280;8235;52.198;9.904;2024-02-23T02:58:34;98197.56;;;6.43;82.44
16255;BME280;8235;52.198;9.904;2024-02-23T03:01:01;98191.44;;;6.42;82.49
16255;BME280;8235;52.198;9.904;2024-02-23T03:03:27;98194.19;;;6.41;81.89
16255;BME280;8235;52.198;9.904;2024-02-23T03:05:54;98201.28;;;6.40;81.66
16255;BME280;8235;52.198;9.904;2024-02-23T03:08:22;98208.63;;;6.37;80.92
16255;BME280;8235;52.198;9.904;2024-02-23T03:10:48;98218.25;;;6.38;79.79
16255;BME280;8235;52.198;9.904;2024-02-23T03:13:15;98218.75;;;6.32;80.21
16255;BME280;8235;52.198;9.904;2024-02-23T03:15:42;98219.72;;;6.31;79.77
16255;BME280;8235;52.198;9.904;2024-02-23T03:18:08;98231.53;;;6.26;79.14
16255;BME280;8235;52.198;9.904;2024-02-23T03:20:35;98231.53;;;6.26;79.17
16255;BME280;8235;52.198;9.904;2024-02-23T03:23:01;98234.44;;;6.23;78.75
16255;BME280;8235;52.198;9.904;2024-02-23T03:25:30;98233.72;;;6.21;78.46
16255;BME280;8235;52.198;9.904;2024-02-23T03:27:56;98239.97;;;6.20;77.43
16255;BME280;8235;52.198;9.904;2024-02-23T03:30:23;98239.97;;;6.20;76.44
16255;BME280;8235;52.198;9.904;2024-02-23T03:32:50;98244.78;;;6.15;75.21
16255;BME280;8235;52.198;9.904;2024-02-23T03:35:16;98249.63;;;6.10;75.04
16255;BME280;8235;52.198;9.904;2024-02-23T03:37:43;98247.94;;;6.09;75.37
16255;BME280;8235;52.198;9.904;2024-02-23T03:40:10;98237.00;;;6.14;74.79
16255;BME280;8235;52.198;9.904;2024-02-23T03:42:39;98268.41;;;6.07;74.87
16255;BME280;8235;52.198;9.904;2024-02-23T03:45:05;98253.22;;;6.09;74.60
16255;BME280;8235;52.198;9.904;2024-02-23T03:47:32;98266.72;;;6.06;73.53
16255;BME280;8235;52.198;9.904;2024-02-23T03:49:59;98268.41;;;6.07;73.96
16255;BME280;8235;52.198;9.904;2024-02-23T03:52:25;98257.81;;;6.07;73.36
16255;BME280;8235;52.198;9.904;2024-02-23T03:54:52;98275.59;;;6.05;73.50
16255;BME280;8235;52.198;9.904;2024-02-23T03:57:20;98269.38;;;6.06;73.94
16255;BME280;8235;52.198;9.904;2024-02-23T03:59:52;98283.53;;;6.05;73.44
16255;BME280;8235;52.198;9.904;2024-02-23T04:02:19;98290.03;;;6.01;72.87
16255;BME280;8235;52.198;9.904;2024-02-23T04:04:47;98295.44;;;6.00;72.85
16255;BME280;8235;52.198;9.904;2024-02-23T04:07:13;98297.38;;;5.98;72.39
16255;BME280;8235;52.198;9.904;2024-02-23T04:09:40;98297.50;;;5.96;72.49
16255;BME280;8235;52.198;9.904;2024-02-23T04:12:07;98280.91;;;5.94;72.10
16255;BME280;8235;52.198;9.904;2024-02-23T04:14:33;98289.81;;;5.93;72.31
16255;BME280;8235;52.198;9.904;2024-02-23T04:17:03;98293.28;;;5.93;71.65
16255;BME280;8235;52.198;9.904;2024-02-23T04:19:29;98293.56;;;5.90;71.34
16255;BME280;8235;52.198;9.904;2024-02-23T04:21:56;98285.84;;;5.87;71.64
16255;BME280;8235;52.198;9.904;2024-02-23T04:24:23;98297.50;;;5.85;71.62
16255;BME280;8235;52.198;9.904;2024-02-23T04:26:49;98289.56;;;5.85;71.84
16255;BME280;8235;52.198;9.904;2024-02-23T04:29:16;98300.16;;;5.85;72.21
16255;BME280;8235;52.198;9.904;2024-02-23T04:31:42;98294.16;;;5.83;71.91
16255;BME280;8235;52.198;9.904;2024-02-23T04:34:10;98302.31;;;5.80;72.69
16255;BME280;8235;52.198;9.904;2024-02-23T04:36:37;98305.66;;;5.82;72.31
16255;BME280;8235;52.198;9.904;2024-02-23T04:39:03;98323.44;;;5.80;71.73
16255;BME280;8235;52.198;9.904;2024-02-23T04:41:30;98321.63;;;5.80;72.47
16255;BME280;8235;52.198;9.904;2024-02-23T04:43:56;98319.84;;;5.81;72.77
16255;BME280;8235;52.198;9.904;2024-02-23T04:46:25;98330.41;;;5.81;72.83
16255;BME280;8235;52.198;9.904;2024-02-23T04:48:51;98340.25;;;5.79;73.09
16255;BME280;8235;52.198;9.904;2024-02-23T04:51:19;98341.09;;;5.79;73.01
16255;BME280;8235;52.198;9.904;2024-02-23T04:53:47;98349.13;;;5.78;72.91
16255;BME280;8235;52.198;9.904;2024-02-23T04:56:14;98352.63;;;5.78;74.04
16255;BME280;8235;52.198;9.904;2024-02-23T04:58:41;98358.75;;;5.79;72.95
16255;BME280;8235;52.198;9.904;2024-02-23T05:01:08;98348.41;;;5.76;73.04
16255;BME280;8235;52.198;9.904;2024-02-23T05:03:34;98361.38;;;5.79;72.87
16255;BME280;8235;52.198;9.904;2024-02-23T05:06:02;98370.16;;;5.79;71.81
16255;BME280;8235;52.198;9.904;2024-02-23T05:08:30;98366.53;;;5.80;70.69
16255;BME280;8235;52.198;9.904;2024-02-23T05:10:57;98370.97;;;5.80;70.09
16255;BME280;8235;52.198;9.904;2024-02-23T05:13:23;98368.59;;;5.77;70.56
16255;BME280;8235;52.198;9.904;2024-02-23T05:15:50;98374.69;;;5.77;71.18
16255;BME280;8235;52.198;9.904;2024-02-23T05:18:16;98372.91;;;5.78;70.35
16255;BME280;8235;52.198;9.904;2024-02-23T05:20:43;98381.56;;;5.80;70.02
16255;BME280;8235;52.198;9.904;2024-02-23T05:23:09;98384.91;;;5.82;69.88
16255;BME280;8235;52.198;9.904;2024-02-23T05:25:37;98390.44;;;5.79;69.54
16255;BME280;8235;52.198;9.904;2024-02-23T05:28:04;98393.06;;;5.79;69.61
16255;BME280;8235;52.198;9.904;2024-02-23T05:30:31;98393.78;;;5.81;69.41
16255;BME280;8235;52.198;9.904;2024-02-23T05:32:57;98397.28;;;5.81;69.29
16255;BME280;8235;52.198;9.904;2024-02-23T05:35:24;98402.91;;;5.77;68.58
16255;BME280;8235;52.198;9.904;2024-02-23T05:37:51;98397.63;;;5.77;69.15
16255;BME280;8235;52.198;9.904;2024-02-23T05:40:18;98406.53;;;5.76;68.55
16255;BME280;8235;52.198;9.904;2024-02-23T05:42:46;98419.72;;;5.76;68.40
16255;BME280;8235;52.198;9.904;2024-02-23T05:45:12;98418.44;;;5.70;67.53
16255;BME280;8235;52.198;9.904;2024-02-23T05:47:39;98414.09;;;5.69;67.92
16255;BME280;8235;52.198;9.904;2024-02-23T05:50:08;98421.63;;;5.74;67.04
16255;BME280;8235;52.198;9.904;2024-02-23T05:52:35;98418.16;;;5.73;67.17
16255;BME280;8235;52.198;9.904;2024-02-23T05:55:03;98428.72;;;5.73;66.97
16255;BME280;8235;52.198;9.904;2024-02-23T05:57:30;98436.53;;;5.75;67.57
16255;BME280;8235;52.198;9.904;2024-02-23T05:59:57;98440.84;;;5.76;67.46
16255;BME280;8235;52.198;9.904;2024-02-23T06:02:24;98447.09;;;5.75;67.98
16255;BME280;8235;52.198;9.904;2024-02-23T06:04:51;98447.94;;;5.75;67.52
16255;BME280;8235;52.198;9.904;2024-02-23T06:07:17;98442.66;;;5.75;67.80
16255;BME280;8235;52.198;9.904;2024-02-23T06:09:45;98455.28;;;5.83;67.41
16255;BME280;8235;52.198;9.904;2024-02-23T06:12:12;98451.91;;;5.81;67.94
16255;BME280;8235;52.198;9.904;2024-02-23T06:14:39;98451.06;;;5.80;68.07
16255;BME280;8235;52.198;9.904;2024-02-23T06:17:06;98463.44;;;5.80;68.02
16255;BME280;8235;52.198;9.904;2024-02-23T06:19:33;98469.66;;;5.79;67.73
16255;BME280;8235;52.198;9.904;2024-02-23T06:22:00;98474.94;;;5.79;68.06
16255;BME280;8235;52.198;9.904;2024-02-23T06:24:26;98477.47;;;5.80;67.79
16255;BME280;8235;52.198;9.904;2024-02-23T06:26:53;98477.47;;;5.80;68.84
16255;BME280;8235;52.198;9.904;2024-02-23T06:29:20;98494.16;;;5.81;68.74
16255;BME280;8235;52.198;9.904;2024-02-23T06:31:46;98494.16;;;5.81;68.08
16255;BME280;8235;52.198;9.904;2024-02-23T06:34:16;98480.72;;;5.84;67.85
16255;BME280;8235;52.198;9.904;2024-02-23T06:36:42;98496.69;;;5.82;66.98
16255;BME280;8235;52.198;9.904;2024-02-23T06:39:09;98486.63;;;5.87;68.19
16255;BME280;8235;52.198;9.904;2024-02-23T06:41:36;98507.75;;;5.87;67.60
16255;BME280;8235;52.198;9.904;2024-02-23T06:44:04;98521.19;;;5.84;67.44
16255;BME280;8235;52.198;9.904;2024-02-23T06:46:30;98508.94;;;5.83;67.57
16255;BME280;8235;52.198;9.904;2024-02-23T06:48:57;98516.88;;;5.83;67.74
16255;BME280;8235;52.198;9.904;2024-02-23T06:51:25;98521.06;;;5.86;66.92
16255;BME280;8235;52.198;9.904;2024-02-23T06:53:51;98522.75;;;5.87;66.78
16255;BME280;8235;52.198;9.904;2024-02-23T06:56:18;98524.25;;;5.91;66.37
16255;BME280;8235;52.198;9.904;2024-02-23T06:58:44;98520.59;;;5.92;66.33
16255;BME280;8235;52.198;9.904;2024-02-23T07:01:11;98527.84;;;5.90;66.54
16255;BME280;8235;52.198;9.904;2024-02-23T07:03:38;98530.47;;;5.90;67.13
16255;BME280;8235;52.198;9.904;2024-02-23T07:06:05;98536.59;;;5.90;65.83
16255;BME280;8235;52.198;9.904;2024-02-23T07:08:33;98535.88;;;5.88;65.84
16255;BME280;8235;52.198;9.904;2024-02-23T07:11:00;98539.59;;;5.97;66.06
16255;BME280;8235;52.198;9.904;2024-02-23T07:13:26;98542.22;;;5.97;65.38
16255;BME280;8235;52.198;9.904;2024-02-23T07:15:53;98546.22;;;6.03;64.93
16255;BME280;8235;52.198;9.904;2024-02-23T07:18:21;98552.34;;;6.03;65.08
16255;BME280;8235;52.198;9.904;2024-02-23T07:20:47;98551.50;;;6.03;64.33
16255;BME280;8235;52.198;9.904;2024-02-23T07:23:14;98550.66;;;6.02;64.65
16255;BME280;8235;52.198;9.904;2024-02-23T07:25:42;98557.63;;;6.03;64.53
16255;BME280;8235;52.198;9.904;2024-02-23T07:28:09;98565.19;;;6.08;64.82
16255;BME280;8235;52.198;9.904;2024-02-23T07:30:35;98557.84;;;6.11;64.52
16255;BME280;8235;52.198;9.904;2024-02-23T07:33:02;98568.69;;;6.08;64.58
16255;BME280;8235;52.198;9.904;2024-02-23T07:35:29;98550.88;;;6.10;64.35
16255;BME280;8235;52.198;9.904;2024-02-23T07:37:55;98570.22;;;6.11;64.73
16255;BME280;8235;52.198;9.904;2024-02-23T07:40:22;98571.06;;;6.11;64.71
16255;BME280;8235;52.198;9.904;2024-02-23T07:42:50;98579.59;;;6.15;64.38
16255;BME280;8235;52.198;9.904;2024-02-23T07:45:16;98584.03;;;6.14;65.01
16255;BME280;8235;52.198;9.904;2024-02-23T07:47:43;98583.81;;;6.17;65.39
16255;BME280;8235;52.198;9.904;2024-02-23T07:50:10;98590.53;;;6.21;64.64
16255;BME280;8235;52.198;9.904;2024-02-23T07:52:38;98608.09;;;6.22;65.42
16255;BME280;8235;52.198;9.904;2024-02-23T07:55:05;98607.97;;;6.24;65.55
16255;BME280;8235;52.198;9.904;2024-02-23T07:57:32;98607.97;;;6.24;65.38
16255;BME280;8235;52.198;9.904;2024-02-23T08:00:01;98608.19;;;6.21;65.27
16255;BME280;8235;52.198;9.904;2024-02-23T08:02:28;98626.69;;;6.21;64.86
16255;BME280;8235;52.198;9.904;2024-02-23T08:04:54;98623.00;;;6.23;64.70
16255;BME280;8235;52.198;9.904;2024-02-23T08:07:21;98624.66;;;6.24;64.85
16255;BME280;8235;52.198;9.904;2024-02-23T08:09:48;98624.41;;;6.27;64.39
16255;BME280;8235;52.198;9.904;2024-02-23T08:12:14;98624.41;;;6.27;63.78
16255;BME280;8235;52.198;9.904;2024-02-23T08:14:41;98613.38;;;6.34;64.38
16255;BME280;8235;52.198;9.904;2024-02-23T08:17:10;98616.72;;;6.36;64.22
16255;BME280;8235;52.198;9.904;2024-02-23T08:19:37;98616.72;;;6.36;64.61
16255;BME280;8235;52.198;9.904;2024-02-23T08:22:04;98618.91;;;6.42;64.14
16255;BME280;8235;52.198;9.904;2024-02-23T08:24:30;98628.13;;;6.47;63.92
16255;BME280;8235;52.198;9.904;2024-02-23T08:26:57;98627.53;;;6.55;63.28
16255;BME280;8235;52.198;9.904;2024-02-23T08:29:23;98622.25;;;6.55;64.39
16255;BME280;8235;52.198;9.904;2024-02-23T08:31:50;98630.69;;;6.60;62.58
16255;BME280;8235;52.198;9.904;2024-02-23T08:34:17;98638.84;;;6.68;60.77
16255;BME280;8235;52.198;9.904;2024-02-23T08:36:44;98626.81;;;6.64;61.14
16255;BME280;8235;52.198;9.904;2024-02-23T08:39:10;98626.56;;;6.67;62.20
16255;BME280;8235;52.198;9.904;2024-02-23T08:41:38;98620.78;;;6.73;61.71
16255;BME280;8235;52.198;9.904;2024-02-23T08:44:05;98610.44;;;6.81;62.07
16255;BME280;8235;52.198;9.904;2024-02-23T08:46:31;98614.75;;;6.93;61.36
16255;BME280;8235;52.198;9.904;2024-02-23T08:48:58;98594.63;;;7.02;60.33
16255;BME280;8235;52.198;9.904;2024-02-23T08:51:25;98603.75;;;7.09;59.06
16255;BME280;8235;52.198;9.904;2024-02-23T08:53:52;98608.56;;;7.15;59.88
16255;BME280;8235;52.198;9.904;2024-02-23T08:56:19;98610.06;;;7.29;59.83
16255;BME280;8235;52.198;9.904;2024-02-23T08:58:45;98606.16;;;7.44;58.44
16255;BME280;8235;52.198;9.904;2024-02-23T09:01:13;98614.16;;;7.54;58.59
16255;BME280;8235;52.198;9.904;2024-02-23T09:03:39;98623.63;;;7.68;57.65
16255;BME280;8235;52.198;9.904;2024-02-23T09:06:06;98617.09;;;7.72;57.49
16255;BME280;8235;52.198;9.904;2024-02-23T09:08:33;98631.13;;;7.83;57.67
16255;BME280;8235;52.198;9.904;2024-02-23T09:10:59;98635.22;;;7.87;57.66
16255;BME280;8235;52.198;9.904;2024-02-23T09:13:26;98644.19;;;7.96;58.11
16255;BME280;8235;52.198;9.904;2024-02-23T09:15:54;98639.34;;;8.01;56.94
16255;BME280;8235;52.198;9.904;2024-02-23T09:18:21;98649.94;;;8.01;56.58
16255;BME280;8235;52.198;9.904;2024-02-23T09:20:48;98658.16;;;7.98;57.50
16255;BME280;8235;52.198;9.904;2024-02-23T09:23:15;98657.44;;;7.96;57.13
16255;BME280;8235;52.198;9.904;2024-02-23T09:25:42;98652.38;;;7.93;57.66
16255;BME280;8235;52.198;9.904;2024-02-23T09:28:09;98664.50;;;7.86;58.54
16255;BME280;8235;52.198;9.904;2024-02-23T09:30:36;98647.88;;;7.84;57.81
16255;BME280;8235;52.198;9.904;2024-02-23T09:33:03;98662.69;;;7.86;57.70
16255;BME280;8235;52.198;9.904;2024-02-23T09:35:29;98658.41;;;7.95;57.60
16255;BME280;8235;52.198;9.904;2024-02-23T09:37:56;98662.22;;;8.02;57.62
16255;BME280;8235;52.198;9.904;2024-02-23T09:40:22;98668.53;;;8.11;58.33
16255;BME280;8235;52.198;9.904;2024-02-23T09:42:55;98679.34;;;8.19;57.66
16255;BME280;8235;52.198;9.904;2024-02-23T09:45:22;98677.47;;;8.30;57.78
16255;BME280;8235;52.198;9.904;2024-02-23T09:47:49;98670.50;;;8.50;58.56
16255;BME280;8235;52.198;9.904;2024-02-23T09:50:17;98669.59;;;8.70;56.92
16255;BME280;8235;52.198;9.904;2024-02-23T09:52:46;98674.94;;;8.80;56.40
16255;BME280;8235;52.198;9.904;2024-02-23T09:55:15;98672.06;;;8.93;55.16
16255;BME280;8235;52.198;9.904;2024-02-23T09:57:42;98675.97;;;8.98;55.19
16255;BME280;8235;52.198;9.904;2024-02-23T10:00:12;98669.03;;;9.07;54.85
16255;BME280;8235;52.198;9.904;2024-02-23T10:02:39;98662.47;;;9.11;54.42
16255;BME280;8235;52.198;9.904;2024-02-23T10:05:06;98662.03;;;9.16;55.01
16255;BME280;8235;52.198;9.904;2024-02-23T10:07:34;98671.03;;;9.24;55.12
16255;BME280;8235;52.198;9.904;2024-02-23T10:10:00;98664.34;;;9.30;54.01
16255;BME280;8235;52.198;9.904;2024-02-23T10:12:27;98660.41;;;9.34;53.94
16255;BME280;8235;52.198;9.904;2024-02-23T10:14:54;98667.41;;;9.35;54.32
16255;BME280;8235;52.198;9.904;2024-02-23T10:17:22;98675.22;;;9.36;53.75
16255;BME280;8235;52.198;9.904;2024-02-23T10:19:48;98678.59;;;9.38;53.78
16255;BME280;8235;52.198;9.904;2024-02-23T10:22:15;98680.81;;;9.33;53.42
16255;BME280;8235;52.198;9.904;2024-02-23T10:24:42;98690.06;;;9.29;53.11
16255;BME280;8235;52.198;9.904;2024-02-23T10:27:08;98687.28;;;9.31;52.54
16255;BME280;8235;52.198;9.904;2024-02-23T10:29:35;98681.25;;;9.29;52.72
16255;BME280;8235;52.198;9.904;2024-02-23T10:32:02;98702.78;;;9.26;52.11
16255;BME280;8235;52.198;9.904;2024-02-23T10:34:31;98696.03;;;9.22;53.02
16255;BME280;8235;52.198;9.904;2024-02-23T10:36:58;98695.47;;;9.18;52.86
16255;BME280;8235;52.198;9.904;2024-02-23T10:39:24;98697.41;;;9.16;52.00
16255;BME280;8235;52.198;9.904;2024-02-23T10:41:56;98702.00;;;9.14;53.14
16255;BME280;8235;52.198;9.904;2024-02-23T10:44:24;98692.78;;;9.09;53.13
16255;BME280;8235;52.198;9.904;2024-02-23T10:46:52;98698.25;;;9.07;52.89
16255;BME280;8235;52.198;9.904;2024-02-23T10:49:20;98690.28;;;9.07;52.43
16255;BME280;8235;52.198;9.904;2024-02-23T10:51:53;98686.91;;;9.05;52.56
16255;BME280;8235;52.198;9.904;2024-02-23T10:54:20;98683.59;;;9.13;52.97
16255;BME280;8235;52.198;9.904;2024-02-23T10:56:49;98690.97;;;9.09;52.15
16255;BME280;8235;52.198;9.904;2024-02-23T10:59:16;98699.38;;;9.14;52.85
16255;BME280;8235;52.198;9.904;2024-02-23T11:01:44;98717.56;;;9.19;53.86
16255;BME280;8235;52.198;9.904;2024-02-23T11:04:11;98698.69;;;9.22;52.23
16255;BME280;8235;52.198;9.904;2024-02-23T11:06:37;98694.22;;;9.22;52.43
16255;BME280;8235;52.198;9.904;2024-02-23T11:09:06;98712.56;;;9.25;52.40
16255;BME280;8235;52.198;9.904;2024-02-23T11:11:34;98697.19;;;9.29;51.45
16255;BME280;8235;52.198;9.904;2024-02-23T11:14:02;98701.22;;;9.33;52.19
16255;BME280;8235;52.198;9.904;2024-02-23T11:16:31;98688.38;;;9.38;51.01
16255;BME280;8235;52.198;9.904;2024-02-23T11:19:04;98684.47;;;9.42;50.28
16255;BME280;8235;52.198;9.904;2024-02-23T11:21:34;98683.19;;;9.36;50.81
16255;BME280;8235;52.198;9.904;2024-02-23T11:24:03;98683.78;;;9.40;51.58
16255;BME280;8235;52.198;9.904;2024-02-23T11:26:31;98671.63;;;9.47;51.08
16255;BME280;8235;52.198;9.904;2024-02-23T11:28:58;98661.00;;;9.57;50.87
16255;BME280;8235;52.198;9.904;2024-02-23T11:31:29;98669.41;;;9.62;50.98
16255;BME280;8235;52.198;9.904;2024-02-23T11:33:57;98681.44;;;9.66;51.69
16255;BME280;8235;52.198;9.904;2024-02-23T11:36:23;98676.25;;;9.74;50.29
16255;BME280;8235;52.198;9.904;2024-02-23T11:38:52;98665.19;;;9.79;50.77
16255;BME280;8235;52.198;9.904;2024-02-23T11:41:21;98677.09;;;9.74;49.92
16255;BME280;8235;52.198;9.904;2024-02-23T11:43:49;98669.13;;;9.74;50.63
16255;BME280;8235;52.198;9.904;2024-02-23T11:46:16;98683.50;;;9.72;50.20
16255;BME280;8235;52.198;9.904;2024-02-23T11:48:42;98682.53;;;9.73;50.54
16255;BME280;8235;52.198;9.904;2024-02-23T11:51:09;98670.22;;;9.72;51.24
16255;BME280;8235;52.198;9.904;2024-02-23T11:53:36;98671.50;;;9.78;51.63
16255;BME280;8235;52.198;9.904;2024-02-23T11:56:04;98672.44;;;9.86;50.65
16255;BME280;8235;52.198;9.904;2024-02-23T11:58:31;98673.28;;;9.87;50.88
16255;BME280;8235;52.198;9.904;2024-02-23T12:00:58;98678.34;;;9.90;50.65
16255;BME280;8235;52.198;9.904;2024-02-23T12:03:27;98669.38;;;9.91;49.98
16255;BME280;8235;52.198;9.904;2024-02-23T12:05:54;98652.88;;;9.97;49.66
16255;BME280;8235;52.198;9.904;2024-02-23T12:08:22;98661.56;;;9.99;48.98
16255;BME280;8235;52.198;9.904;2024-02-23T12:10:49;98644.19;;;9.95;49.64
16255;BME280;8235;52.198;9.904;2024-02-23T12:13:15;98661.00;;;9.95;48.76
16255;BME280;8235;52.198;9.904;2024-02-23T12:15:42;98667.00;;;9.97;49.97
16255;BME280;8235;52.198;9.904;2024-02-23T12:18:11;98658.63;;;10.02;50.63
16255;BME280;8235;52.198;9.904;2024-02-23T12:20:38;98665.88;;;10.09;50.75
16255;BME280;8235;52.198;9.904;2024-02-23T12:23:04;98654.38;;;10.09;49.78
16255;BME280;8235;52.198;9.904;2024-02-23T12:25:31;98659.13;;;10.05;49.09
16255;BME280;8235;52.198;9.904;2024-02-23T12:27:58;98663.75;;;10.03;49.45
16255;BME280;8235;52.198;9.904;2024-02-23T12:30:25;98663.75;;;10.03;49.32
16255;BME280;8235;52.198;9.904;2024-02-23T12:33:03;98668.41;;;10.01;49.37
16255;BME280;8235;52.198;9.904;2024-02-23T12:35:30;98659.88;;;9.98;48.91
16255;BME280;8235;52.198;9.904;2024-02-23T12:37:57;98655.25;;;10.00;48.74
16255;BME280;8235;52.198;9.904;2024-02-23T12:40:23;98670.78;;;9.95;49.20
16255;BME280;8235;52.198;9.904;2024-02-23T12:42:50;98663.78;;;9.94;49.67
16255;BME280;8235;52.198;9.904;2024-02-23T12:45:17;98655.25;;;10.00;49.10
16255;BME280;8235;52.198;9.904;2024-02-23T12:47:43;98667.25;;;10.04;49.49
16255;BME280;8235;52.198;9.904;2024-02-23T12:50:10;98669.53;;;9.99;49.25
16255;BME280;8235;52.198;9.904;2024-02-23T12:52:37;98676.94;;;9.95;48.98
16255;BME280;8235;52.198;9.904;2024-02-23T12:55:04;98674.69;;;9.91;49.12
16255;BME280;8235;52.198;9.904;2024-02-23T12:57:31;98658.75;;;9.91;49.55
16255;BME280;8235;52.198;9.904;2024-02-23T12:59:58;98668.13;;;9.95;49.43
16255;BME280;8235;52.198;9.904;2024-02-23T13:02:24;98667.31;;;9.85;49.52
16255;BME280;8235;52.198;9.904;2024-02-23T13:04:51;98683.25;;;9.94;49.97
16255;BME280;8235;52.198;9.904;2024-02-23T13:07:18;98668.25;;;9.93;49.46
16255;BME280;8235;52.198;9.904;2024-02-23T13:09:46;98675.53;;;9.91;48.98
16255;BME280;8235;52.198;9.904;2024-02-23T13:12:12;98675.13;;;9.86;48.95
16255;BME280;8235;52.198;9.904;2024-02-23T13:14:39;98682.84;;;9.80;50.04
16255;BME280;8235;52.198;9.904;2024-02-23T13:17:05;98684.38;;;9.82;50.89
16255;BME280;8235;52.198;9.904;2024-02-23T13:19:31;98683.41;;;9.83;49.92
16255;BME280;8235;52.198;9.904;2024-02-23T13:21:58;98694.16;;;9.82;49.67